createdAt,value
2019-02-14T00:00:11.950Z,25.67
2019-02-14T00:02:43.258Z,25.27
2019-02-14T00:05:16.604Z,26.07
2019-02-14T00:07:44.333Z,26.43
2019-02-14T00:10:14.033Z,23.97
2019-02-14T00:12:43.650Z,30.10
2019-02-14T00:15:14.318Z,25.53
2019-02-14T00:17:43.921Z,24.47
2019-02-14T00:20:13.530Z,25.50
2019-02-14T00:22:44.120Z,27.23
2019-02-14T00:25:13.738Z,28.97
2019-02-14T00:27:43.352Z,27.00
2019-02-14T00:30:13.024Z,27.13
2019-02-14T00:32:42.679Z,30.77
2019-02-14T00:35:12.310Z,28.67
2019-02-14T00:37:41.942Z,23.30
2019-02-14T00:40:11.549Z,26.23
2019-02-14T00:42:41.154Z,27.57
2019-02-14T00:45:10.819Z,25.90
2019-02-14T00:47:40.497Z,27.37
2019-02-14T00:50:10.121Z,29.30
2019-02-14T00:52:39.714Z,30.00
2019-02-14T00:55:09.398Z,32.17
2019-02-14T00:57:39.010Z,30.07
2019-02-14T01:00:09.031Z,31.13
2019-02-14T01:02:38.643Z,26.93
2019-02-14T01:05:08.421Z,44.00
2019-02-14T01:07:38.105Z,29.47
2019-02-14T01:10:08.178Z,32.13
2019-02-14T01:12:37.759Z,35.73
2019-02-14T01:15:08.827Z,30.40
2019-02-14T01:17:38.434Z,37.33
2019-02-14T01:20:08.218Z,29.57
2019-02-14T01:22:37.832Z,32.40
2019-02-14T01:25:07.505Z,31.07
2019-02-14T01:27:37.133Z,37.73
2019-02-14T01:30:07.598Z,31.27
2019-02-14T01:32:37.213Z,32.80
2019-02-14T01:35:07.250Z,32.80
2019-02-14T01:37:36.873Z,29.50
2019-02-14T01:40:06.641Z,36.83
2019-02-14T01:42:36.322Z,30.83
2019-02-14T01:45:07.299Z,47.70
2019-02-14T01:47:36.910Z,32.00
2019-02-14T01:50:07.780Z,30.23
2019-02-14T01:52:37.398Z,38.63
2019-02-14T01:55:07.264Z,37.07
2019-02-14T01:57:36.878Z,33.60
2019-02-14T02:00:10.199Z,33.30
2019-02-14T02:02:39.875Z,36.23
2019-02-14T02:05:09.558Z,38.70
2019-02-14T02:07:39.153Z,33.73
2019-02-14T02:10:10.233Z,31.43
2019-02-14T02:12:39.929Z,37.67
2019-02-14T02:15:11.350Z,32.33
2019-02-14T02:17:40.954Z,31.43
2019-02-14T02:20:10.583Z,37.60
2019-02-14T02:22:40.229Z,33.20
2019-02-14T02:25:11.655Z,41.63
2019-02-14T02:27:41.242Z,34.77
2019-02-14T02:30:13.537Z,35.23
2019-02-14T02:32:43.170Z,35.50
2019-02-14T02:35:14.007Z,33.10
2019-02-14T02:37:44.577Z,38.17
2019-02-14T02:40:14.254Z,32.03
2019-02-14T02:42:43.869Z,35.57
2019-02-14T02:45:13.676Z,38.10
2019-02-14T02:47:43.292Z,36.43
2019-02-14T02:50:12.937Z,42.40
2019-02-14T02:52:42.565Z,40.23
2019-02-14T02:55:12.250Z,43.53
2019-02-14T02:57:41.846Z,42.07
2019-02-14T03:00:14.177Z,43.67
2019-02-14T03:02:43.810Z,46.87
2019-02-14T03:05:14.562Z,40.60
2019-02-14T03:07:44.171Z,36.00
2019-02-14T03:10:13.977Z,41.87
2019-02-14T03:12:43.582Z,35.30
2019-02-14T03:15:13.468Z,44.03
2019-02-14T03:17:43.209Z,39.10
2019-02-14T03:20:13.046Z,48.57
2019-02-14T03:22:42.645Z,38.53
2019-02-14T03:25:14.743Z,36.27
2019-02-14T03:27:44.404Z,36.33
2019-02-14T03:30:14.701Z,44.17
2019-02-14T03:32:44.301Z,41.23
2019-02-14T03:35:13.906Z,44.27
2019-02-14T03:37:43.507Z,34.13
2019-02-14T03:40:13.270Z,40.97
2019-02-14T03:42:43.970Z,36.97
2019-02-14T03:45:15.673Z,38.80
2019-02-14T03:47:45.358Z,40.77
2019-02-14T03:50:15.229Z,39.93
2019-02-14T03:52:44.823Z,37.50
2019-02-14T03:55:14.430Z,45.57
2019-02-14T03:57:45.117Z,39.27
2019-02-14T04:00:15.726Z,40.63
2019-02-14T04:02:45.340Z,42.97
2019-02-14T04:05:15.025Z,38.97
2019-02-14T04:07:44.633Z,41.00
2019-02-14T04:10:14.383Z,34.90
2019-02-14T04:12:44.057Z,36.33
2019-02-14T04:15:15.078Z,38.83
2019-02-14T04:17:45.058Z,42.27
2019-02-14T04:20:14.738Z,37.50
2019-02-14T04:22:44.413Z,46.93
2019-02-14T04:25:14.273Z,43.63
2019-02-14T04:27:43.887Z,36.50
2019-02-14T04:30:13.950Z,36.47
2019-02-14T04:32:44.525Z,32.37
2019-02-14T04:35:14.136Z,34.70
2019-02-14T04:37:43.859Z,33.87
2019-02-14T04:40:13.568Z,41.00
2019-02-14T04:42:43.170Z,31.50
2019-02-14T04:45:13.480Z,33.20
2019-02-14T04:47:43.231Z,31.00
2019-02-14T04:50:13.269Z,32.43
2019-02-14T04:52:42.925Z,41.87
2019-02-14T04:55:12.566Z,40.33
2019-02-14T04:57:42.210Z,36.67
2019-02-14T05:00:12.350Z,34.13
2019-02-14T05:02:42.929Z,34.70
2019-02-14T05:05:12.725Z,30.40
2019-02-14T05:07:42.340Z,29.00
2019-02-14T05:10:12.001Z,33.23
2019-02-14T05:12:41.593Z,35.27
2019-02-14T05:15:11.355Z,34.40
2019-02-14T05:17:40.968Z,35.83
2019-02-14T05:20:11.807Z,38.30
2019-02-14T05:22:42.483Z,42.27
2019-02-14T05:25:12.112Z,41.03
2019-02-14T05:27:41.766Z,41.83
2019-02-14T05:30:12.166Z,40.37
2019-02-14T05:32:41.990Z,35.93
2019-02-14T05:35:11.658Z,43.53
2019-02-14T05:37:41.310Z,33.20
2019-02-14T05:40:11.240Z,31.70
2019-02-14T05:42:40.921Z,38.53
2019-02-14T05:45:11.115Z,39.90
2019-02-14T05:47:41.746Z,34.27
2019-02-14T05:50:11.456Z,36.50
2019-02-14T05:52:41.059Z,36.07
2019-02-14T05:55:11.093Z,44.53
2019-02-14T05:57:41.062Z,38.10
2019-02-14T06:00:12.471Z,35.90
2019-02-14T06:02:42.095Z,39.23
2019-02-14T06:05:11.814Z,57.67
2019-02-14T06:07:41.458Z,37.63
2019-02-14T06:10:11.226Z,39.20
2019-02-14T06:12:40.842Z,41.67
2019-02-14T06:15:10.851Z,31.03
2019-02-14T06:17:40.549Z,36.40
2019-02-14T06:20:10.355Z,37.43
2019-02-14T06:22:40.014Z,37.30
2019-02-14T06:25:09.786Z,32.57
2019-02-14T06:27:39.450Z,41.23
2019-02-14T06:30:10.958Z,37.40
2019-02-14T06:32:40.645Z,35.13
2019-02-14T06:35:10.744Z,41.73
2019-02-14T06:37:40.370Z,33.30
2019-02-14T06:40:11.006Z,39.50
2019-02-14T06:42:40.738Z,39.47
2019-02-14T06:45:12.211Z,32.17
2019-02-14T06:47:41.809Z,42.77
2019-02-14T06:50:11.489Z,37.77
2019-02-14T06:52:41.109Z,37.97
2019-02-14T06:55:10.904Z,40.63
2019-02-14T06:57:40.657Z,42.50
2019-02-14T07:00:12.502Z,40.90
2019-02-14T07:02:43.449Z,43.57
2019-02-14T07:05:13.174Z,36.60
2019-02-14T07:07:42.862Z,38.27
2019-02-14T07:10:12.553Z,30.63
2019-02-14T07:12:42.226Z,32.50
2019-02-14T07:15:12.240Z,32.77
2019-02-14T07:17:41.944Z,32.37
2019-02-14T07:20:13.225Z,35.80
2019-02-14T07:22:42.821Z,30.83
2019-02-14T07:25:12.515Z,35.87
2019-02-14T07:27:42.297Z,35.03
2019-02-14T07:30:14.590Z,39.17
2019-02-14T07:32:44.184Z,36.77
2019-02-14T07:35:13.793Z,37.83
2019-02-14T07:37:43.397Z,39.57
2019-02-14T07:40:13.517Z,32.87
2019-02-14T07:42:43.293Z,34.20
2019-02-14T07:45:13.698Z,39.20
2019-02-14T07:47:43.377Z,35.37
2019-02-14T07:50:13.173Z,45.33
2019-02-14T07:52:42.796Z,31.07
2019-02-14T07:55:12.736Z,34.87
2019-02-14T07:57:42.523Z,33.63
2019-02-14T08:00:13.205Z,30.13
2019-02-14T08:02:42.910Z,26.57
2019-02-14T08:05:12.511Z,33.77
2019-02-14T08:07:42.141Z,26.70
2019-02-14T08:10:12.881Z,27.90
2019-02-14T08:12:42.712Z,29.53
2019-02-14T08:15:13.238Z,29.50
2019-02-14T08:17:42.897Z,36.27
2019-02-14T08:20:12.965Z,29.40
2019-02-14T08:22:42.594Z,32.63
2019-02-14T08:25:12.408Z,36.43
2019-02-14T08:27:42.020Z,30.63
2019-02-14T08:30:13.442Z,28.10
2019-02-14T08:32:43.033Z,34.17
2019-02-14T08:35:12.666Z,28.10
2019-02-14T08:37:45.707Z,26.53
2019-02-14T08:40:16.983Z,30.13
2019-02-14T08:42:46.602Z,27.90
2019-02-14T08:45:16.217Z,27.60
2019-02-14T08:47:45.842Z,29.37
2019-02-14T08:50:15.558Z,27.80
2019-02-14T08:52:45.292Z,27.00
2019-02-14T08:55:14.953Z,25.53
2019-02-14T08:57:44.569Z,36.77
2019-02-14T09:00:14.461Z,42.47
2019-02-14T09:02:44.074Z,31.13
2019-02-14T09:05:13.690Z,33.97
2019-02-14T09:07:43.296Z,31.13
2019-02-14T09:10:13.260Z,36.00
2019-02-14T09:12:42.897Z,27.53
2019-02-14T09:15:12.774Z,24.37
2019-02-14T09:17:43.638Z,29.70
2019-02-14T09:20:13.844Z,25.03
2019-02-14T09:22:43.442Z,27.03
2019-02-14T09:25:13.217Z,29.20
2019-02-14T09:27:42.813Z,27.17
2019-02-14T09:30:12.512Z,26.20
2019-02-14T09:32:42.119Z,24.97
2019-02-14T09:35:12.802Z,23.90
2019-02-14T09:37:42.398Z,26.13
2019-02-14T09:40:12.606Z,27.67
2019-02-14T09:42:42.206Z,28.07
2019-02-14T09:45:12.188Z,26.93
2019-02-14T09:47:41.856Z,24.77
2019-02-14T09:50:12.092Z,26.80
2019-02-14T09:52:42.795Z,31.23
2019-02-14T09:55:12.554Z,23.60
2019-02-14T09:57:42.331Z,23.90
2019-02-14T10:00:14.020Z,24.43
2019-02-14T10:02:44.698Z,31.10
2019-02-14T10:05:14.461Z,23.13
2019-02-14T10:07:44.234Z,22.50
2019-02-14T10:10:15.736Z,33.90
2019-02-14T10:12:45.425Z,23.83
2019-02-14T10:15:16.580Z,26.37
2019-02-14T10:17:46.203Z,27.13
2019-02-14T10:20:16.140Z,29.70
2019-02-14T10:22:45.918Z,31.70
2019-02-14T10:25:15.715Z,28.53
2019-02-14T10:27:45.765Z,22.00
2019-02-14T10:30:17.014Z,24.20
2019-02-14T10:32:46.619Z,23.27
2019-02-14T10:35:17.267Z,21.47
2019-02-14T10:37:47.023Z,20.40
2019-02-14T10:40:16.729Z,25.57
2019-02-14T10:42:46.447Z,25.93
2019-02-14T10:45:17.349Z,25.07
2019-02-14T10:47:46.950Z,19.20
2019-02-14T10:50:16.660Z,21.13
2019-02-14T10:52:46.366Z,30.17
2019-02-14T10:55:16.437Z,20.33
2019-02-14T10:57:46.060Z,24.73
2019-02-14T11:00:18.857Z,22.60
2019-02-14T11:02:49.583Z,23.50
2019-02-14T11:05:19.645Z,23.17
2019-02-14T11:07:49.334Z,20.63
2019-02-14T11:10:19.009Z,21.73
2019-02-14T11:12:48.611Z,22.67
2019-02-14T11:15:19.255Z,24.23
2019-02-14T11:17:49.165Z,30.10
2019-02-14T11:20:19.065Z,18.90
2019-02-14T11:22:49.255Z,19.43
2019-02-14T11:25:22.300Z,27.27
2019-02-14T11:27:51.970Z,24.80
2019-02-14T11:30:21.672Z,26.40
2019-02-14T11:32:51.343Z,21.83
2019-02-14T11:35:21.064Z,22.00
2019-02-14T11:37:50.659Z,18.67
2019-02-14T11:40:20.294Z,25.07
2019-02-14T11:42:49.910Z,17.57
2019-02-14T11:45:20.045Z,19.40
2019-02-14T11:47:49.647Z,18.40
2019-02-14T11:50:19.345Z,19.10
2019-02-14T11:52:48.954Z,18.67
2019-02-14T11:55:18.569Z,21.67
2019-02-14T11:57:48.194Z,23.23
2019-02-14T12:00:22.793Z,21.40
2019-02-14T12:02:55.488Z,18.87
2019-02-14T12:05:23.880Z,21.73
2019-02-14T12:07:54.475Z,20.23
2019-02-14T12:10:24.277Z,28.60
2019-02-14T12:12:53.890Z,19.60
2019-02-14T12:15:23.665Z,22.47
2019-02-14T12:17:54.392Z,17.53
2019-02-14T12:20:24.003Z,18.33
2019-02-14T12:22:53.645Z,25.23
2019-02-14T12:25:23.518Z,15.80
2019-02-14T12:27:53.134Z,22.47
2019-02-14T12:30:22.838Z,16.47
2019-02-14T12:32:52.448Z,21.10
2019-02-14T12:35:22.103Z,20.67
2019-02-14T12:37:51.745Z,25.23
2019-02-14T12:40:21.481Z,16.93
2019-02-14T12:42:51.089Z,19.00
2019-02-14T12:45:23.586Z,15.53
2019-02-14T12:47:52.124Z,19.23
2019-02-14T12:50:21.737Z,20.43
2019-02-14T12:52:51.341Z,19.20
2019-02-14T12:55:20.967Z,14.17
2019-02-14T12:57:50.590Z,12.50
2019-02-14T13:00:21.138Z,14.37
2019-02-14T13:02:51.150Z,18.30
2019-02-14T13:05:20.756Z,14.80
2019-02-14T13:07:50.446Z,17.93
2019-02-14T13:10:20.236Z,13.70
2019-02-14T13:12:50.229Z,13.63
2019-02-14T13:15:21.639Z,15.17
2019-02-14T13:17:51.246Z,14.70
2019-02-14T13:20:20.917Z,12.50
2019-02-14T13:22:50.679Z,14.60
2019-02-14T13:25:20.296Z,11.60
2019-02-14T13:27:49.909Z,12.80
2019-02-14T13:30:21.269Z,14.23
2019-02-14T13:32:50.887Z,13.90
2019-02-14T13:35:20.627Z,17.13
2019-02-14T13:37:50.226Z,13.93
2019-02-14T13:40:19.843Z,10.77
2019-02-14T13:42:49.466Z,14.40
2019-02-14T13:45:21.198Z,14.23
2019-02-14T13:47:50.840Z,14.73
2019-02-14T13:50:21.514Z,15.53
2019-02-14T13:52:51.119Z,16.73
2019-02-14T13:55:20.769Z,16.63
2019-02-14T13:57:50.437Z,12.90
2019-02-14T14:00:23.024Z,16.93
2019-02-14T14:02:52.706Z,19.80
2019-02-14T14:05:22.376Z,23.33
2019-02-14T14:07:52.083Z,15.17
2019-02-14T14:10:21.902Z,18.60
2019-02-14T14:12:51.539Z,20.47
2019-02-14T14:15:21.163Z,14.53
2019-02-14T14:17:50.767Z,13.50
2019-02-14T14:20:20.370Z,18.60
2019-02-14T14:22:49.977Z,13.60
2019-02-14T14:25:19.585Z,12.57
2019-02-14T14:27:49.186Z,13.47
2019-02-14T14:30:18.862Z,20.57
2019-02-14T14:32:48.724Z,23.27
2019-02-14T14:35:18.355Z,16.73
2019-02-14T14:37:47.974Z,18.93
2019-02-14T14:40:17.614Z,10.60
2019-02-14T14:43:06.343Z,16.90
2019-02-14T14:46:06.257Z,16.30
2019-02-14T14:48:38.745Z,19.80
2019-02-14T14:51:08.355Z,16.67
2019-02-14T14:53:37.990Z,14.83
2019-02-14T14:56:07.711Z,11.97
2019-02-14T14:58:37.365Z,14.33
2019-02-14T15:01:07.069Z,20.57
2019-02-14T15:03:36.697Z,14.00
2019-02-14T15:06:06.302Z,20.10
2019-02-14T15:08:35.906Z,16.93
2019-02-14T15:11:05.563Z,13.33
2019-02-14T15:13:35.211Z,15.33
2019-02-14T15:16:04.810Z,15.27
2019-02-14T15:18:35.387Z,22.10
2019-02-14T15:21:05.073Z,13.93
2019-02-14T15:23:34.657Z,20.17
2019-02-14T15:26:04.302Z,13.77
2019-02-14T15:28:33.962Z,12.47
2019-02-14T15:31:03.575Z,14.93
2019-02-14T15:33:33.185Z,27.27
2019-02-14T15:36:02.803Z,18.10
2019-02-14T15:38:34.462Z,18.80
2019-02-14T15:41:03.752Z,15.57
2019-02-14T15:43:33.441Z,18.40
2019-02-14T15:46:03.058Z,14.13
2019-02-14T15:48:32.673Z,15.77
2019-02-14T15:51:02.282Z,22.67
2019-02-14T15:53:31.917Z,23.03
2019-02-14T15:56:03.252Z,17.53
2019-02-14T15:58:33.125Z,24.43
2019-02-14T16:01:02.897Z,28.03
2019-02-14T16:03:32.638Z,18.50
2019-02-14T16:06:03.987Z,22.07
2019-02-14T16:08:33.630Z,21.40
2019-02-14T16:11:03.242Z,16.47
2019-02-14T16:13:33.665Z,17.80
2019-02-14T16:16:03.522Z,15.47
2019-02-14T16:18:33.146Z,20.37
2019-02-14T16:21:03.698Z,18.27
2019-02-14T16:23:34.347Z,16.90
2019-02-14T16:26:04.241Z,20.20
2019-02-14T16:28:35.598Z,22.53
2019-02-14T16:31:05.219Z,16.70
2019-02-14T16:33:34.810Z,19.00
2019-02-14T16:36:04.417Z,17.53
2019-02-14T16:38:35.533Z,18.50
2019-02-14T16:41:05.457Z,18.87
2019-02-14T16:43:35.074Z,17.30
2019-02-14T16:46:04.694Z,15.93
2019-02-14T16:48:34.285Z,17.17
2019-02-14T16:51:03.895Z,18.37
2019-02-14T16:53:33.538Z,18.47
2019-02-14T16:56:03.177Z,18.47
2019-02-14T16:58:33.028Z,16.03
2019-02-14T17:01:02.627Z,19.07
2019-02-14T17:03:32.308Z,29.73
2019-02-14T17:06:01.938Z,22.30
2019-02-14T17:08:31.600Z,17.10
2019-02-14T17:11:01.198Z,18.57
2019-02-14T17:13:30.785Z,21.30
2019-02-14T17:16:00.394Z,22.43
2019-02-14T17:18:30.004Z,15.50
2019-02-14T17:20:59.608Z,20.13
2019-02-14T17:23:29.209Z,21.17
2019-02-14T17:25:58.822Z,17.03
2019-02-14T17:28:28.431Z,23.40
2019-02-14T17:30:58.054Z,18.07
2019-02-14T17:33:27.654Z,20.27
2019-02-14T17:35:57.249Z,20.73
2019-02-14T17:38:26.898Z,19.27
2019-02-14T17:40:56.540Z,20.30
2019-02-14T17:43:26.126Z,20.40
2019-02-14T17:45:55.734Z,24.20
2019-02-14T17:48:26.626Z,15.40
2019-02-14T17:50:56.320Z,29.10
2019-02-14T17:53:25.934Z,26.03
2019-02-14T17:55:55.603Z,20.50
2019-02-14T17:58:25.214Z,18.17
2019-02-14T18:00:54.822Z,21.23
2019-02-14T18:03:24.446Z,21.97
2019-02-14T18:05:54.047Z,24.67
2019-02-14T18:08:23.665Z,23.70
2019-02-14T18:10:55.195Z,22.63
2019-02-14T18:13:24.641Z,18.47
2019-02-14T18:15:54.279Z,19.87
2019-02-14T18:18:23.882Z,20.67
2019-02-14T18:20:53.566Z,20.47
2019-02-14T18:23:23.236Z,18.33
2019-02-14T18:25:52.835Z,25.23
2019-02-14T18:28:22.438Z,18.73
2019-02-14T18:30:52.066Z,19.07
2019-02-14T18:33:22.744Z,25.93
2019-02-14T18:35:52.334Z,20.33
2019-02-14T18:38:21.971Z,22.93
2019-02-14T18:40:51.580Z,22.30
2019-02-14T18:43:23.310Z,17.93
2019-02-14T18:45:52.980Z,20.30
2019-02-14T18:48:22.606Z,21.07
2019-02-14T18:50:52.206Z,15.03
2019-02-14T18:53:21.850Z,14.77
2019-02-14T18:55:51.449Z,16.23
2019-02-14T18:58:26.421Z,21.90
2019-02-14T19:00:52.381Z,20.80
2019-02-14T19:03:22.059Z,20.07
2019-02-14T19:05:51.726Z,18.73
2019-02-14T19:08:21.342Z,18.03
2019-02-14T19:10:50.938Z,18.40
2019-02-14T19:13:20.553Z,20.40
2019-02-14T19:15:50.180Z,26.80
2019-02-14T19:18:19.854Z,18.63
2019-02-14T19:20:49.449Z,17.87
2019-02-14T19:23:24.191Z,15.23
2019-02-14T19:25:50.378Z,16.00
2019-02-14T19:28:19.994Z,17.00
2019-02-14T19:30:49.609Z,16.60
2019-02-14T19:33:19.209Z,18.30
2019-02-14T19:35:48.826Z,19.17
2019-02-14T19:38:18.449Z,19.33
2019-02-14T19:40:49.205Z,20.50
2019-02-14T19:43:18.861Z,18.03
2019-02-14T19:45:48.502Z,16.43
2019-02-14T19:48:18.154Z,20.10
2019-02-14T19:50:47.770Z,15.97
2019-02-14T19:53:17.385Z,21.33
2019-02-14T19:55:46.993Z,17.10
2019-02-14T19:58:16.602Z,19.97
2019-02-14T20:00:46.210Z,19.93
2019-02-14T20:03:16.894Z,17.37
2019-02-14T20:05:46.550Z,18.17
2019-02-14T20:08:16.161Z,17.47
2019-02-14T20:10:45.841Z,22.07
2019-02-14T20:13:15.454Z,22.93
2019-02-14T20:15:45.058Z,19.50
2019-02-14T20:18:14.698Z,19.23
2019-02-14T20:20:44.421Z,17.53
2019-02-14T20:23:14.030Z,22.43
2019-02-14T20:25:43.717Z,18.40
2019-02-14T20:28:13.311Z,18.00
2019-02-14T20:30:42.929Z,17.37
2019-02-14T20:33:12.545Z,19.53
2019-02-14T20:35:42.175Z,17.53
2019-02-14T20:38:12.808Z,21.00
2019-02-14T20:40:42.414Z,15.23
2019-02-14T20:43:12.016Z,16.80
2019-02-14T20:45:42.793Z,17.67
2019-02-14T20:48:13.385Z,17.73
2019-02-14T20:50:42.997Z,16.87
2019-02-14T20:53:12.617Z,15.37
2019-02-14T20:55:42.631Z,17.40
2019-02-14T20:58:12.237Z,16.57
2019-02-14T21:00:41.903Z,17.50
2019-02-14T21:03:11.601Z,16.60
2019-02-14T21:05:41.242Z,15.67
2019-02-14T21:08:10.849Z,14.50
2019-02-14T21:10:40.542Z,21.07
2019-02-14T21:13:10.146Z,22.73
2019-02-14T21:15:39.825Z,17.40
2019-02-14T21:18:09.478Z,16.97
2019-02-14T21:20:39.174Z,17.30
2019-02-14T21:23:08.777Z,17.10
2019-02-14T21:25:38.401Z,16.17
2019-02-14T21:28:08.096Z,17.07
2019-02-14T21:30:37.709Z,24.90
2019-02-14T21:33:07.328Z,15.70
2019-02-14T21:35:37.981Z,22.30
2019-02-14T21:38:07.756Z,15.30
2019-02-14T21:40:37.440Z,19.00
2019-02-14T21:43:07.081Z,22.23
2019-02-14T21:45:36.977Z,17.57
2019-02-14T21:48:06.993Z,15.27
2019-02-14T21:50:36.625Z,21.80
2019-02-14T21:53:06.298Z,13.70
2019-02-14T21:55:35.909Z,19.70
2019-02-14T21:58:06.144Z,15.27
2019-02-14T22:00:36.266Z,21.27
2019-02-14T22:03:05.950Z,14.67
2019-02-14T22:05:35.626Z,24.70
2019-02-14T22:08:05.315Z,17.90
2019-02-14T22:10:35.911Z,17.23
2019-02-14T22:13:05.608Z,15.57
2019-02-14T22:15:35.342Z,14.00
2019-02-14T22:18:05.057Z,22.03
2019-02-14T22:20:34.862Z,23.97
2019-02-14T22:23:04.494Z,18.53
2019-02-14T22:25:34.182Z,15.97
2019-02-14T22:28:03.787Z,18.83
2019-02-14T22:30:33.465Z,14.13
2019-02-14T22:33:03.078Z,16.77
2019-02-14T22:35:32.666Z,13.33
2019-02-14T22:38:02.302Z,15.17
2019-02-14T22:40:31.934Z,14.83
2019-02-14T22:43:01.538Z,15.60
2019-02-14T22:45:31.150Z,21.17
2019-02-14T22:48:00.755Z,15.57
2019-02-14T22:50:30.353Z,19.07
2019-02-14T22:53:00.942Z,14.17
2019-02-14T22:55:30.641Z,19.63
2019-02-14T22:58:00.242Z,17.93
2019-02-14T23:00:37.502Z,16.20
2019-02-14T23:03:08.874Z,17.07
2019-02-14T23:05:38.476Z,16.83
2019-02-14T23:08:08.097Z,17.23
2019-02-14T23:10:37.861Z,15.43
2019-02-14T23:13:07.569Z,14.57
2019-02-14T23:15:37.385Z,15.73
2019-02-14T23:18:06.989Z,19.23
2019-02-14T23:20:36.562Z,14.50
2019-02-14T23:23:06.346Z,16.20
2019-02-14T23:25:35.961Z,17.93
2019-02-14T23:28:05.641Z,17.17
2019-02-14T23:30:35.419Z,17.13
2019-02-14T23:33:05.086Z,13.50
2019-02-14T23:35:35.829Z,17.30
2019-02-14T23:38:05.617Z,16.30
2019-02-14T23:40:35.242Z,15.30
2019-02-14T23:43:05.118Z,14.53
2019-02-14T23:45:35.762Z,17.73
2019-02-14T23:48:05.365Z,16.83
2019-02-14T23:50:34.986Z,16.90
2019-02-14T23:53:04.597Z,15.33
2019-02-14T23:55:34.214Z,13.57
2019-02-14T23:58:03.834Z,18.50
